sensor_id;sensor_type;location;lat;lon;timestamp;pressure;altitude;pressure_sealevel;temperature;humidity
35892;BME280;21993;42.672;23.296;2023-03-19T00:01:55;95245.38;;;5.31;55.90
35892;BME280;21993;42.672;23.296;2023-03-19T00:04:21;95244.16;;;5.37;56.18
35892;BME280;21993;42.672;23.296;2023-03-19T00:06:50;95253.28;;;5.30;55.92
35892;BME280;21993;42.672;23.296;2023-03-19T00:09:16;95251.16;;;5.51;55.17
35892;BME280;21993;42.672;23.296;2023-03-19T00:11:41;95250.50;;;5.47;55.25
35892;BME280;21993;42.672;23.296;2023-03-19T00:14:07;95255.25;;;5.41;56.04
35892;BME280;21993;42.672;23.296;2023-03-19T00:16:32;95249.75;;;5.45;55.69
35892;BME280;21993;42.672;23.296;2023-03-19T00:18:58;95243.16;;;5.40;55.66
35892;BME280;21993;42.672;23.296;2023-03-19T00:21:23;95244.56;;;5.01;57.12
35892;BME280;21993;42.672;23.296;2023-03-19T00:23:49;95245.69;;;5.11;57.61
35892;BME280;21993;42.672;23.296;2023-03-19T00:26:16;95234.53;;;5.09;57.44
35892;BME280;21993;42.672;23.296;2023-03-19T00:28:42;95242.75;;;5.17;57.21
35892;BME280;21993;42.672;23.296;2023-03-19T00:31:16;95237.19;;;5.23;56.64
35892;BME280;21993;42.672;23.296;2023-03-19T00:33:42;95227.31;;;5.14;56.50
35892;BME280;21993;42.672;23.296;2023-03-19T00:36:08;95232.56;;;4.98;57.17
35892;BME280;21993;42.672;23.296;2023-03-19T00:38:35;95235.19;;;4.98;57.58
35892;BME280;21993;42.672;23.296;2023-03-19T00:41:01;95229.28;;;4.95;57.86
35892;BME280;21993;42.672;23.296;2023-03-19T00:43:27;95226.03;;;4.91;57.51
35892;BME280;21993;42.672;23.296;2023-03-19T00:45:53;95214.94;;;4.73;58.81
35892;BME280;21993;42.672;23.296;2023-03-19T00:48:19;95219.03;;;4.77;58.69
35892;BME280;21993;42.672;23.296;2023-03-19T00:50:46;95218.88;;;4.80;58.64
35892;BME280;21993;42.672;23.296;2023-03-19T00:53:11;95216.38;;;4.93;57.69
35892;BME280;21993;42.672;23.296;2023-03-19T00:55:37;95214.59;;;4.79;58.57
35892;BME280;21993;42.672;23.296;2023-03-19T00:58:02;95212.09;;;4.92;57.91
35892;BME280;21993;42.672;23.296;2023-03-19T01:00:27;95206.84;;;4.78;57.87
35892;BME280;21993;42.672;23.296;2023-03-19T01:02:53;95209.97;;;4.55;58.50
35892;BME280;21993;42.672;23.296;2023-03-19T01:05:18;95203.53;;;4.46;57.98
35892;BME280;21993;42.672;23.296;2023-03-19T01:07:44;95201.25;;;4.40;58.13
35892;BME280;21993;42.672;23.296;2023-03-19T01:10:10;95200.94;;;4.46;58.61
35892;BME280;21993;42.672;23.296;2023-03-19T01:12:35;95198.31;;;4.46;59.08
35892;BME280;21993;42.672;23.296;2023-03-19T01:15:01;95202.91;;;4.57;57.98
35892;BME280;21993;42.672;23.296;2023-03-19T01:17:27;95195.22;;;4.39;58.45
35892;BME280;21993;42.672;23.296;2023-03-19T01:19:52;95194.38;;;4.55;59.07
35892;BME280;21993;42.672;23.296;2023-03-19T01:22:17;95192.50;;;4.57;58.70
35892;BME280;21993;42.672;23.296;2023-03-19T01:24:43;95193.91;;;4.62;59.33
35892;BME280;21993;42.672;23.296;2023-03-19T01:27:09;95184.72;;;4.57;58.54
35892;BME280;21993;42.672;23.296;2023-03-19T01:29:34;95195.00;;;4.58;59.07
35892;BME280;21993;42.672;23.296;2023-03-19T01:32:00;95190.31;;;4.65;57.91
35892;BME280;21993;42.672;23.296;2023-03-19T01:34:25;95191.88;;;4.67;58.47
35892;BME280;21993;42.672;23.296;2023-03-19T01:36:51;95199.69;;;4.67;58.36
35892;BME280;21993;42.672;23.296;2023-03-19T01:39:17;95189.50;;;4.48;57.58
35892;BME280;21993;42.672;23.296;2023-03-19T01:41:42;95192.88;;;4.35;58.33
35892;BME280;21993;42.672;23.296;2023-03-19T01:44:27;95193.53;;;4.54;56.93
35892;BME280;21993;42.672;23.296;2023-03-19T01:46:53;95195.25;;;4.53;57.48
35892;BME280;21993;42.672;23.296;2023-03-19T01:49:20;95197.38;;;4.63;56.83
35892;BME280;21993;42.672;23.296;2023-03-19T01:51:48;95200.81;;;4.77;57.60
35892;BME280;21993;42.672;23.296;2023-03-19T01:54:16;95200.09;;;4.75;57.69
35892;BME280;21993;42.672;23.296;2023-03-19T01:56:45;95209.66;;;4.75;57.42
35892;BME280;21993;42.672;23.296;2023-03-19T01:59:17;95198.22;;;4.77;58.06
35892;BME280;21993;42.672;23.296;2023-03-19T02:04:37;95198.63;;;4.86;57.24
35892;BME280;21993;42.672;23.296;2023-03-19T02:07:04;95202.88;;;4.87;58.46
35892;BME280;21993;42.672;23.296;2023-03-19T02:09:30;95206.91;;;4.92;57.48
35892;BME280;21993;42.672;23.296;2023-03-19T02:11:56;95205.34;;;4.90;57.48
35892;BME280;21993;42.672;23.296;2023-03-19T02:14:22;95196.59;;;4.91;57.39
35892;BME280;21993;42.672;23.296;2023-03-19T02:16:47;95197.03;;;4.83;58.40
35892;BME280;21993;42.672;23.296;2023-03-19T02:19:19;95193.22;;;4.74;57.56
35892;BME280;21993;42.672;23.296;2023-03-19T02:21:46;95198.09;;;4.65;58.44
35892;BME280;21993;42.672;23.296;2023-03-19T02:24:16;95198.00;;;4.66;58.82
35892;BME280;21993;42.672;23.296;2023-03-19T02:26:45;95197.00;;;4.69;58.94
35892;BME280;21993;42.672;23.296;2023-03-19T02:29:11;95197.81;;;4.69;57.89
35892;BME280;21993;42.672;23.296;2023-03-19T02:31:38;95198.66;;;4.70;58.57
35892;BME280;21993;42.672;23.296;2023-03-19T02:36:59;95204.16;;;4.65;58.94
35892;BME280;21993;42.672;23.296;2023-03-19T02:39:40;95200.44;;;4.69;58.50
35892;BME280;21993;42.672;23.296;2023-03-19T02:42:10;95206.34;;;4.57;59.28
35892;BME280;21993;42.672;23.296;2023-03-19T02:44:35;95208.75;;;4.60;59.22
35892;BME280;21993;42.672;23.296;2023-03-19T02:47:02;95204.31;;;4.62;59.27
35892;BME280;21993;42.672;23.296;2023-03-19T02:49:28;95212.25;;;4.29;59.77
35892;BME280;21993;42.672;23.296;2023-03-19T02:51:53;95214.25;;;4.40;59.70
35892;BME280;21993;42.672;23.296;2023-03-19T02:54:19;95212.69;;;4.37;59.95
35892;BME280;21993;42.672;23.296;2023-03-19T02:56:44;95207.31;;;4.24;59.44
35892;BME280;21993;42.672;23.296;2023-03-19T02:59:10;95207.22;;;4.26;59.74
35892;BME280;21993;42.672;23.296;2023-03-19T03:01:35;95217.00;;;4.37;59.76
35892;BME280;21993;42.672;23.296;2023-03-19T03:04:01;95211.81;;;4.37;59.64
35892;BME280;21993;42.672;23.296;2023-03-19T03:06:27;95219.56;;;4.22;60.04
35892;BME280;21993;42.672;23.296;2023-03-19T03:08:52;95221.97;;;4.26;60.78
35892;BME280;21993;42.672;23.296;2023-03-19T03:11:18;95216.25;;;4.35;59.70
35892;BME280;21993;42.672;23.296;2023-03-19T03:13:44;95225.91;;;4.33;59.50
35892;BME280;21993;42.672;23.296;2023-03-19T03:16:10;95221.22;;;4.39;59.47
35892;BME280;21993;42.672;23.296;2023-03-19T03:18:35;95222.97;;;4.39;59.47
35892;BME280;21993;42.672;23.296;2023-03-19T03:21:00;95225.66;;;4.37;60.50
35892;BME280;21993;42.672;23.296;2023-03-19T03:23:26;95227.16;;;4.41;59.90
35892;BME280;21993;42.672;23.296;2023-03-19T03:25:51;95227.91;;;4.43;60.04
35892;BME280;21993;42.672;23.296;2023-03-19T03:28:17;95234.88;;;4.43;59.62
35892;BME280;21993;42.672;23.296;2023-03-19T03:30:43;95228.09;;;4.40;60.51
35892;BME280;21993;42.672;23.296;2023-03-19T03:33:09;95228.94;;;4.41;60.40
35892;BME280;21993;42.672;23.296;2023-03-19T03:35:34;95228.66;;;4.45;60.40
35892;BME280;21993;42.672;23.296;2023-03-19T03:38:00;95234.72;;;4.46;59.33
35892;BME280;21993;42.672;23.296;2023-03-19T03:40:27;95239.41;;;4.39;59.28
35892;BME280;21993;42.672;23.296;2023-03-19T03:42:53;95234.13;;;4.41;59.43
35892;BME280;21993;42.672;23.296;2023-03-19T03:45:19;95230.28;;;4.16;60.86
35892;BME280;21993;42.672;23.296;2023-03-19T03:47:44;95230.94;;;4.20;59.90
35892;BME280;21993;42.672;23.296;2023-03-19T03:50:10;95235.88;;;4.24;60.30
35892;BME280;21993;42.672;23.296;2023-03-19T03:52:37;95235.81;;;4.26;59.88
35892;BME280;21993;42.672;23.296;2023-03-19T03:55:03;95244.44;;;4.27;59.88
35892;BME280;21993;42.672;23.296;2023-03-19T03:57:29;95246.78;;;4.15;60.21
35892;BME280;21993;42.672;23.296;2023-03-19T03:59:54;95253.84;;;4.13;60.83
35892;BME280;21993;42.672;23.296;2023-03-19T04:02:20;95249.56;;;4.12;60.88
35892;BME280;21993;42.672;23.296;2023-03-19T04:04:45;95243.59;;;4.10;60.84
35892;BME280;21993;42.672;23.296;2023-03-19T04:07:11;95241.09;;;4.09;60.49
35892;BME280;21993;42.672;23.296;2023-03-19T04:09:37;95237.25;;;4.16;59.72
35892;BME280;21993;42.672;23.296;2023-03-19T04:12:02;95234.13;;;4.09;60.43
35892;BME280;21993;42.672;23.296;2023-03-19T04:14:28;95237.97;;;4.02;60.31
35892;BME280;21993;42.672;23.296;2023-03-19T04:16:53;95234.13;;;3.93;59.70
35892;BME280;21993;42.672;23.296;2023-03-19T04:19:19;95232.53;;;3.91;60.04
35892;BME280;21993;42.672;23.296;2023-03-19T04:21:44;95236.69;;;3.62;61.33
35892;BME280;21993;42.672;23.296;2023-03-19T04:24:10;95231.94;;;3.70;61.57
35892;BME280;21993;42.672;23.296;2023-03-19T04:26:36;95242.38;;;3.68;61.33
35892;BME280;21993;42.672;23.296;2023-03-19T04:29:02;95235.50;;;3.67;60.63
35892;BME280;21993;42.672;23.296;2023-03-19T04:31:28;95239.03;;;3.66;61.06
35892;BME280;21993;42.672;23.296;2023-03-19T04:33:53;95243.81;;;3.74;60.69
35892;BME280;21993;42.672;23.296;2023-03-19T04:36:19;95248.34;;;3.71;60.77
35892;BME280;21993;42.672;23.296;2023-03-19T04:38:45;95248.34;;;3.71;60.90
35892;BME280;21993;42.672;23.296;2023-03-19T04:41:12;95244.91;;;3.70;60.99
35892;BME280;21993;42.672;23.296;2023-03-19T04:43:38;95253.38;;;3.74;60.72
35892;BME280;21993;42.672;23.296;2023-03-19T04:46:03;95248.19;;;3.74;61.51
35892;BME280;21993;42.672;23.296;2023-03-19T04:48:31;95255.88;;;3.75;61.09
35892;BME280;21993;42.672;23.296;2023-03-19T04:50:56;95252.44;;;3.75;61.32
35892;BME280;21993;42.672;23.296;2023-03-19T04:53:22;95250.03;;;3.72;60.43
35892;BME280;21993;42.672;23.296;2023-03-19T04:55:49;95246.50;;;3.73;61.11
35892;BME280;21993;42.672;23.296;2023-03-19T04:58:15;95246.16;;;3.63;61.02
35892;BME280;21993;42.672;23.296;2023-03-19T05:00:40;95242.72;;;3.62;61.78
35892;BME280;21993;42.672;23.296;2023-03-19T05:03:05;95248.09;;;3.42;62.30
35892;BME280;21993;42.672;23.296;2023-03-19T05:05:31;95237.84;;;3.56;61.62
35892;BME280;21993;42.672;23.296;2023-03-19T05:07:56;95254.59;;;3.66;61.58
35892;BME280;21993;42.672;23.296;2023-03-19T05:10:22;95253.38;;;3.74;61.78
35892;BME280;21993;42.672;23.296;2023-03-19T05:12:48;95253.13;;;3.78;61.66
35892;BME280;21993;42.672;23.296;2023-03-19T05:15:14;95258.81;;;3.85;61.26
35892;BME280;21993;42.672;23.296;2023-03-19T05:17:39;95260.09;;;3.93;61.23
35892;BME280;21993;42.672;23.296;2023-03-19T05:20:05;95243.00;;;3.89;61.17
35892;BME280;21993;42.672;23.296;2023-03-19T05:22:31;95248.72;;;3.96;61.45
35892;BME280;21993;42.672;23.296;2023-03-19T05:24:56;95245.13;;;3.99;61.59
35892;BME280;21993;42.672;23.296;2023-03-19T05:27:22;95253.16;;;4.10;61.60
35892;BME280;21993;42.672;23.296;2023-03-19T05:29:47;95249.31;;;4.17;61.41
35892;BME280;21993;42.672;23.296;2023-03-19T05:32:13;95256.50;;;4.28;60.04
35892;BME280;21993;42.672;23.296;2023-03-19T05:34:38;95251.81;;;4.18;60.83
35892;BME280;21993;42.672;23.296;2023-03-19T05:37:04;95244.44;;;4.11;61.02
35892;BME280;21993;42.672;23.296;2023-03-19T05:39:29;95240.56;;;4.34;60.43
35892;BME280;21993;42.672;23.296;2023-03-19T05:41:55;95252.41;;;4.39;60.04
35892;BME280;21993;42.672;23.296;2023-03-19T05:44:20;95259.25;;;4.56;60.08
35892;BME280;21993;42.672;23.296;2023-03-19T05:46:46;95260.66;;;4.62;59.99
35892;BME280;21993;42.672;23.296;2023-03-19T05:49:12;95261.03;;;4.56;59.14
35892;BME280;21993;42.672;23.296;2023-03-19T05:51:38;95258.56;;;4.68;59.17
35892;BME280;21993;42.672;23.296;2023-03-19T05:54:03;95261.56;;;4.76;59.07
35892;BME280;21993;42.672;23.296;2023-03-19T05:56:29;95257.44;;;4.88;57.87
35892;BME280;21993;42.672;23.296;2023-03-19T05:58:54;95261.69;;;5.05;58.08
35892;BME280;21993;42.672;23.296;2023-03-19T06:01:21;95252.69;;;4.95;57.73
35892;BME280;21993;42.672;23.296;2023-03-19T06:03:46;95255.50;;;4.92;56.90
35892;BME280;21993;42.672;23.296;2023-03-19T06:06:12;95256.28;;;5.08;57.39
35892;BME280;21993;42.672;23.296;2023-03-19T06:08:38;95263.34;;;5.06;56.10
35892;BME280;21993;42.672;23.296;2023-03-19T06:11:03;95257.16;;;4.93;56.63
35892;BME280;21993;42.672;23.296;2023-03-19T06:13:29;95255.06;;;4.99;57.15
35892;BME280;21993;42.672;23.296;2023-03-19T06:15:54;95262.63;;;5.18;55.51
35892;BME280;21993;42.672;23.296;2023-03-19T06:18:20;95256.97;;;5.26;54.70
35892;BME280;21993;42.672;23.296;2023-03-19T06:20:46;95246.75;;;5.37;54.73
35892;BME280;21993;42.672;23.296;2023-03-19T06:23:12;95256.34;;;5.51;54.55
35892;BME280;21993;42.672;23.296;2023-03-19T06:25:37;95253.94;;;5.48;53.69
35892;BME280;21993;42.672;23.296;2023-03-19T06:28:04;95250.97;;;5.40;53.99
35892;BME280;21993;42.672;23.296;2023-03-19T06:30:30;95261.75;;;5.48;54.13
35892;BME280;21993;42.672;23.296;2023-03-19T06:32:55;95271.06;;;5.66;54.27
35892;BME280;21993;42.672;23.296;2023-03-19T06:35:21;95268.09;;;5.58;54.13
35892;BME280;21993;42.672;23.296;2023-03-19T06:37:46;95270.56;;;5.31;55.06
35892;BME280;21993;42.672;23.296;2023-03-19T06:40:13;95276.94;;;5.55;54.73
35892;BME280;21993;42.672;23.296;2023-03-19T06:42:38;95280.84;;;5.77;54.01
35892;BME280;21993;42.672;23.296;2023-03-19T06:45:05;95270.25;;;6.08;53.88
35892;BME280;21993;42.672;23.296;2023-03-19T06:47:31;95269.88;;;6.14;53.72
35892;BME280;21993;42.672;23.296;2023-03-19T06:49:57;95281.88;;;6.17;53.69
35892;BME280;21993;42.672;23.296;2023-03-19T06:52:23;95284.72;;;6.41;53.42
35892;BME280;21993;42.672;23.296;2023-03-19T06:54:49;95283.53;;;6.73;52.71
35892;BME280;21993;42.672;23.296;2023-03-19T06:57:15;95279.63;;;6.93;51.38
35892;BME280;21993;42.672;23.296;2023-03-19T06:59:40;95285.78;;;6.92;51.66
35892;BME280;21993;42.672;23.296;2023-03-19T07:02:11;95282.31;;;7.19;50.63
35892;BME280;21993;42.672;23.296;2023-03-19T07:04:36;95289.66;;;7.39;49.47
35892;BME280;21993;42.672;23.296;2023-03-19T07:07:02;95280.03;;;7.27;50.57
35892;BME280;21993;42.672;23.296;2023-03-19T07:09:30;95284.03;;;7.45;49.81
35892;BME280;21993;42.672;23.296;2023-03-19T07:11:55;95277.22;;;7.55;49.42
35892;BME280;21993;42.672;23.296;2023-03-19T07:14:21;95282.25;;;7.71;49.57
35892;BME280;21993;42.672;23.296;2023-03-19T07:16:46;95286.03;;;7.80;48.42
35892;BME280;21993;42.672;23.296;2023-03-19T07:19:11;95277.38;;;7.92;48.12
35892;BME280;21993;42.672;23.296;2023-03-19T07:21:37;95276.53;;;7.92;48.52
35892;BME280;21993;42.672;23.296;2023-03-19T07:24:02;95275.88;;;8.01;49.74
35892;BME280;21993;42.672;23.296;2023-03-19T07:26:28;95270.09;;;8.21;48.95
35892;BME280;21993;42.672;23.296;2023-03-19T07:28:54;95267.28;;;8.24;49.09
35892;BME280;21993;42.672;23.296;2023-03-19T07:31:19;95270.72;;;8.37;48.34
35892;BME280;21993;42.672;23.296;2023-03-19T07:33:45;95269.75;;;8.51;47.65
35892;BME280;21993;42.672;23.296;2023-03-19T07:36:10;95268.84;;;8.76;47.26
35892;BME280;21993;42.672;23.296;2023-03-19T07:38:36;95276.19;;;8.95;46.63
35892;BME280;21993;42.672;23.296;2023-03-19T07:41:01;95265.00;;;8.93;46.25
35892;BME280;21993;42.672;23.296;2023-03-19T07:43:27;95270.97;;;9.06;46.07
35892;BME280;21993;42.672;23.296;2023-03-19T07:45:52;95267.94;;;9.23;45.99
35892;BME280;21993;42.672;23.296;2023-03-19T07:48:18;95267.78;;;9.38;45.56
35892;BME280;21993;42.672;23.296;2023-03-19T07:50:43;95274.78;;;9.26;45.56
35892;BME280;21993;42.672;23.296;2023-03-19T07:53:08;95273.97;;;9.37;45.59
35892;BME280;21993;42.672;23.296;2023-03-19T07:55:34;95273.66;;;9.52;45.24
35892;BME280;21993;42.672;23.296;2023-03-19T07:57:59;95269.38;;;9.51;46.57
35892;BME280;21993;42.672;23.296;2023-03-19T08:00:25;95273.94;;;9.72;46.04
35892;BME280;21993;42.672;23.296;2023-03-19T08:02:50;95267.97;;;9.81;44.76
35892;BME280;21993;42.672;23.296;2023-03-19T08:05:16;95264.41;;;9.82;44.60
35892;BME280;21993;42.672;23.296;2023-03-19T08:07:41;95265.84;;;9.97;45.11
35892;BME280;21993;42.672;23.296;2023-03-19T08:10:07;95269.81;;;10.25;43.73
35892;BME280;21993;42.672;23.296;2023-03-19T08:12:33;95268.88;;;10.26;43.44
35892;BME280;21993;42.672;23.296;2023-03-19T08:15:05;95263.84;;;10.46;42.83
35892;BME280;21993;42.672;23.296;2023-03-19T08:17:30;95266.50;;;10.34;43.29
35892;BME280;21993;42.672;23.296;2023-03-19T08:20:12;95277.22;;;10.42;42.76
35892;BME280;21993;42.672;23.296;2023-03-19T08:22:38;95275.38;;;10.65;42.53
35892;BME280;21993;42.672;23.296;2023-03-19T08:25:04;95270.06;;;10.33;43.01
35892;BME280;21993;42.672;23.296;2023-03-19T08:27:31;95269.09;;;10.57;42.79
35892;BME280;21993;42.672;23.296;2023-03-19T08:29:58;95270.41;;;10.62;42.74
35892;BME280;21993;42.672;23.296;2023-03-19T08:32:23;95270.59;;;10.82;41.95
35892;BME280;21993;42.672;23.296;2023-03-19T08:34:49;95265.56;;;10.90;42.15
35892;BME280;21993;42.672;23.296;2023-03-19T08:37:15;95257.41;;;11.04;42.39
35892;BME280;21993;42.672;23.296;2023-03-19T08:39:41;95263.72;;;11.34;41.06
35892;BME280;21993;42.672;23.296;2023-03-19T08:42:06;95254.28;;;11.31;41.38
35892;BME280;21993;42.672;23.296;2023-03-19T08:44:32;95246.09;;;11.45;40.61
35892;BME280;21993;42.672;23.296;2023-03-19T08:46:57;95252.13;;;11.57;40.87
35892;BME280;21993;42.672;23.296;2023-03-19T08:49:23;95253.97;;;11.66;39.94
35892;BME280;21993;42.672;23.296;2023-03-19T08:51:48;95236.88;;;11.72;40.14
35892;BME280;21993;42.672;23.296;2023-03-19T08:54:14;95247.47;;;11.61;40.96
35892;BME280;21993;42.672;23.296;2023-03-19T08:56:40;95241.25;;;11.62;40.56
35892;BME280;21993;42.672;23.296;2023-03-19T08:59:05;95234.94;;;11.74;40.92
35892;BME280;21993;42.672;23.296;2023-03-19T09:01:31;95225.25;;;11.95;40.69
35892;BME280;21993;42.672;23.296;2023-03-19T09:03:56;95229.16;;;12.01;39.45
35892;BME280;21993;42.672;23.296;2023-03-19T09:06:21;95231.72;;;12.12;39.06
35892;BME280;21993;42.672;23.296;2023-03-19T09:08:47;95219.91;;;12.06;39.11
35892;BME280;21993;42.672;23.296;2023-03-19T09:11:12;95218.78;;;12.09;38.65
35892;BME280;21993;42.672;23.296;2023-03-19T09:13:39;95216.16;;;12.09;39.43
35892;BME280;21993;42.672;23.296;2023-03-19T09:16:05;95214.25;;;12.11;39.92
35892;BME280;21993;42.672;23.296;2023-03-19T09:18:31;95209.75;;;12.42;39.30
35892;BME280;21993;42.672;23.296;2023-03-19T09:20:57;95219.31;;;12.33;38.50
35892;BME280;21993;42.672;23.296;2023-03-19T09:23:22;95211.59;;;12.51;39.41
35892;BME280;21993;42.672;23.296;2023-03-19T09:25:48;95208.13;;;12.60;38.84
35892;BME280;21993;42.672;23.296;2023-03-19T09:28:14;95212.03;;;12.56;39.43
35892;BME280;21993;42.672;23.296;2023-03-19T09:30:39;95206.25;;;12.72;37.66
35892;BME280;21993;42.672;23.296;2023-03-19T09:33:05;95200.53;;;12.77;37.76
35892;BME280;21993;42.672;23.296;2023-03-19T09:35:31;95203.06;;;12.78;38.24
35892;BME280;21993;42.672;23.296;2023-03-19T09:38:00;95204.88;;;12.97;38.53
35892;BME280;21993;42.672;23.296;2023-03-19T09:40:35;95201.13;;;13.09;37.60
35892;BME280;21993;42.672;23.296;2023-03-19T09:45:33;95205.44;;;13.20;36.80
35892;BME280;21993;42.672;23.296;2023-03-19T09:48:04;95196.44;;;13.32;36.45
35892;BME280;21993;42.672;23.296;2023-03-19T09:50:32;95197.81;;;13.46;36.31
35892;BME280;21993;42.672;23.296;2023-03-19T09:53:13;95189.34;;;13.42;36.94
35892;BME280;21993;42.672;23.296;2023-03-19T09:55:47;95192.13;;;13.41;36.82
35892;BME280;21993;42.672;23.296;2023-03-19T09:58:18;95184.88;;;13.52;36.93
35892;BME280;21993;42.672;23.296;2023-03-19T10:00:52;95189.97;;;13.73;36.43
35892;BME280;21993;42.672;23.296;2023-03-19T10:09:09;95181.91;;;14.12;36.55
35892;BME280;21993;42.672;23.296;2023-03-19T10:12:03;95177.41;;;13.95;35.49
35892;BME280;21993;42.672;23.296;2023-03-19T10:17:18;95165.03;;;14.32;35.48
35892;BME280;21993;42.672;23.296;2023-03-19T10:19:52;95157.31;;;14.49;35.10
35892;BME280;21993;42.672;23.296;2023-03-19T10:22:24;95151.28;;;14.56;34.65
35892;BME280;21993;42.672;23.296;2023-03-19T10:24:55;95156.75;;;14.90;34.10
35892;BME280;21993;42.672;23.296;2023-03-19T10:27:24;95143.84;;;15.05;34.60
35892;BME280;21993;42.672;23.296;2023-03-19T10:29:51;95144.56;;;15.33;33.94
35892;BME280;21993;42.672;23.296;2023-03-19T10:32:33;95132.88;;;15.62;33.12
35892;BME280;21993;42.672;23.296;2023-03-19T10:35:11;95120.34;;;15.98;33.31
35892;BME280;21993;42.672;23.296;2023-03-19T10:37:41;95124.19;;;16.12;32.25
35892;BME280;21993;42.672;23.296;2023-03-19T10:40:18;95117.84;;;16.47;32.16
35892;BME280;21993;42.672;23.296;2023-03-19T10:42:56;95115.09;;;16.56;31.57
35892;BME280;21993;42.672;23.296;2023-03-19T10:45:30;95112.16;;;16.76;30.67
35892;BME280;21993;42.672;23.296;2023-03-19T10:47:57;95101.75;;;17.07;31.32
35892;BME280;21993;42.672;23.296;2023-03-19T10:50:56;95099.41;;;17.44;30.83
35892;BME280;21993;42.672;23.296;2023-03-19T10:53:30;95087.94;;;17.77;30.07
35892;BME280;21993;42.672;23.296;2023-03-19T10:56:18;95095.00;;;18.00;30.16
35892;BME280;21993;42.672;23.296;2023-03-19T10:58:59;95080.63;;;18.18;29.05
35892;BME280;21993;42.672;23.296;2023-03-19T11:01:37;95076.19;;;18.41;28.93
35892;BME280;21993;42.672;23.296;2023-03-19T11:04:19;95064.59;;;18.65;28.89
35892;BME280;21993;42.672;23.296;2023-03-19T11:06:50;95065.81;;;18.86;28.67
35892;BME280;21993;42.672;23.296;2023-03-19T11:09:38;95061.19;;;19.02;27.85
35892;BME280;21993;42.672;23.296;2023-03-19T11:14:42;95043.06;;;19.21;28.54
35892;BME280;21993;42.672;23.296;2023-03-19T11:19:48;95041.56;;;19.56;29.36
35892;BME280;21993;42.672;23.296;2023-03-19T11:22:20;95040.28;;;19.66;27.87
35892;BME280;21993;42.672;23.296;2023-03-19T11:24:55;95030.13;;;19.85;27.56
35892;BME280;21993;42.672;23.296;2023-03-19T11:27:32;95034.41;;;20.01;28.53
35892;BME280;21993;42.672;23.296;2023-03-19T11:30:00;95035.63;;;19.98;27.82
35892;BME280;21993;42.672;23.296;2023-03-19T11:32:52;95028.16;;;20.08;27.43
35892;BME280;21993;42.672;23.296;2023-03-19T11:35:25;95020.00;;;20.10;28.20
35892;BME280;21993;42.672;23.296;2023-03-19T11:40:42;95005.16;;;20.22;27.36
35892;BME280;21993;42.672;23.296;2023-03-19T11:43:22;95009.16;;;20.33;27.14
35892;BME280;21993;42.672;23.296;2023-03-19T11:49:10;94992.72;;;20.29;27.23
35892;BME280;21993;42.672;23.296;2023-03-19T11:59:31;94993.78;;;18.41;52.47
35892;BME280;21993;42.672;23.296;2023-03-19T12:02:20;94992.16;;;18.09;51.07
35892;BME280;21993;42.672;23.296;2023-03-19T12:08:02;94982.13;;;17.88;58.36
35892;BME280;21993;42.672;23.296;2023-03-19T12:37:06;94950.75;;;18.15;41.51
35892;BME280;21993;42.672;23.296;2023-03-19T12:39:39;94952.84;;;18.27;42.14
35892;BME280;21993;42.672;23.296;2023-03-19T12:42:09;94948.25;;;17.90;41.44
35892;BME280;21993;42.672;23.296;2023-03-19T12:44:40;94948.44;;;17.50;41.55
35892;BME280;21993;42.672;23.296;2023-03-19T12:47:14;94944.75;;;17.03;38.95
35892;BME280;21993;42.672;23.296;2023-03-19T12:55:17;94943.69;;;17.76;35.83
35892;BME280;21993;42.672;23.296;2023-03-19T12:57:54;94942.13;;;17.51;35.12
35892;BME280;21993;42.672;23.296;2023-03-19T13:03:20;94933.41;;;17.73;34.39
35892;BME280;21993;42.672;23.296;2023-03-19T13:06:08;94927.91;;;17.83;34.80
35892;BME280;21993;42.672;23.296;2023-03-19T13:09:00;94930.94;;;18.25;37.48
35892;BME280;21993;42.672;23.296;2023-03-19T13:14:37;94921.31;;;17.70;33.48
35892;BME280;21993;42.672;23.296;2023-03-19T13:19:46;94915.13;;;17.39;34.34
35892;BME280;21993;42.672;23.296;2023-03-19T13:22:15;94914.19;;;17.24;34.05
35892;BME280;21993;42.672;23.296;2023-03-19T13:24:44;94907.56;;;17.20;33.99
35892;BME280;21993;42.672;23.296;2023-03-19T13:27:31;94912.75;;;17.52;33.44
35892;BME280;21993;42.672;23.296;2023-03-19T13:29:58;94905.88;;;17.66;33.66
35892;BME280;21993;42.672;23.296;2023-03-19T13:32:47;94899.34;;;17.85;33.67
35892;BME280;21993;42.672;23.296;2023-03-19T13:40:41;94896.22;;;17.73;33.01
35892;BME280;21993;42.672;23.296;2023-03-19T13:43:38;94900.50;;;17.82;33.56
35892;BME280;21993;42.672;23.296;2023-03-19T13:46:33;94894.16;;;17.91;32.85
35892;BME280;21993;42.672;23.296;2023-03-19T13:51:46;94881.50;;;17.62;33.00
35892;BME280;21993;42.672;23.296;2023-03-19T13:59:35;94871.28;;;18.28;32.65
35892;BME280;21993;42.672;23.296;2023-03-19T14:07:18;94873.81;;;18.21;32.14
35892;BME280;21993;42.672;23.296;2023-03-19T14:09:47;94863.69;;;18.40;31.87
35892;BME280;21993;42.672;23.296;2023-03-19T14:25:23;94853.22;;;18.61;31.65
35892;BME280;21993;42.672;23.296;2023-03-19T14:27:54;94854.56;;;18.57;31.80
35892;BME280;21993;42.672;23.296;2023-03-19T14:30:28;94851.00;;;18.65;31.85
35892;BME280;21993;42.672;23.296;2023-03-19T14:32:56;94851.75;;;18.59;31.59
35892;BME280;21993;42.672;23.296;2023-03-19T14:35:24;94854.88;;;18.62;31.71
35892;BME280;21993;42.672;23.296;2023-03-19T14:37:52;94849.81;;;18.52;31.52
35892;BME280;21993;42.672;23.296;2023-03-19T14:40:50;94857.59;;;18.54;32.02
35892;BME280;21993;42.672;23.296;2023-03-19T14:43:31;94848.16;;;18.51;32.02
35892;BME280;21993;42.672;23.296;2023-03-19T14:46:03;94848.81;;;18.53;31.97
35892;BME280;21993;42.672;23.296;2023-03-19T14:54:25;94852.03;;;18.26;32.35
35892;BME280;21993;42.672;23.296;2023-03-19T14:56:55;94850.03;;;18.28;32.28
35892;BME280;21993;42.672;23.296;2023-03-19T14:59:20;94847.25;;;18.21;32.74
35892;BME280;21993;42.672;23.296;2023-03-19T15:01:51;94843.78;;;18.21;31.69